createdAt,value
2022-09-15T00:00:13.477Z,999.7
2022-09-15T00:01:29.405Z,999.7
2022-09-15T00:02:44.870Z,999.7
2022-09-15T00:04:01.055Z,999.7
2022-09-15T00:05:17.246Z,999.8
2022-09-15T00:06:33.428Z,999.7
2022-09-15T00:07:49.344Z,999.7
2022-09-15T00:09:05.796Z,999.7
2022-09-15T00:10:21.988Z,999.8
2022-09-15T00:11:38.179Z,999.7
2022-09-15T00:12:54.370Z,999.7
2022-09-15T00:14:10.552Z,999.8
2022-09-15T00:15:26.744Z,999.7
2022-09-15T00:16:42.665Z,999.7
2022-09-15T00:17:59.108Z,999.7
2022-09-15T00:19:14.314Z,999.7
2022-09-15T00:20:30.247Z,999.7
2022-09-15T00:21:46.439Z,999.6
2022-09-15T00:23:02.878Z,999.7
2022-09-15T00:24:18.805Z,999.6
2022-09-15T00:25:35.254Z,999.6
2022-09-15T00:26:51.444Z,999.6
2022-09-15T00:28:07.638Z,999.5
2022-09-15T00:29:23.818Z,999.5
2022-09-15T00:30:40.001Z,999.5
2022-09-15T00:31:55.916Z,999.6
2022-09-15T00:33:12.123Z,999.5
2022-09-15T00:34:28.572Z,999.4
2022-09-15T00:35:43.761Z,999.5
2022-09-15T00:36:59.957Z,999.4
2022-09-15T00:38:16.147Z,999.5
2022-09-15T00:39:32.336Z,999.5
2022-09-15T00:40:48.511Z,999.4
2022-09-15T00:42:04.711Z,999.5
2022-09-15T00:43:20.900Z,999.5
2022-09-15T00:44:37.089Z,999.5
2022-09-15T00:45:53.008Z,999.5
2022-09-15T00:47:09.448Z,999.6
2022-09-15T00:48:25.646Z,999.6
2022-09-15T00:49:41.829Z,999.5
2022-09-15T00:50:58.012Z,999.6
2022-09-15T00:52:12.952Z,999.6
2022-09-15T00:53:29.401Z,999.6
2022-09-15T00:54:45.333Z,999.7
2022-09-15T00:56:01.787Z,999.7
2022-09-15T00:57:17.978Z,999.6
2022-09-15T00:58:33.882Z,999.7
2022-09-15T00:59:50.356Z,999.7
2022-09-15T01:01:06.530Z,999.7
2022-09-15T01:02:22.441Z,999.7
2022-09-15T01:03:38.901Z,999.6
2022-09-15T01:04:54.813Z,999.7
2022-09-15T01:06:11.293Z,999.6
2022-09-15T01:07:27.200Z,999.6
2022-09-15T01:08:42.671Z,999.6
2022-09-15T01:09:58.862Z,999.6
2022-09-15T01:11:14.766Z,999.6
2022-09-15T01:12:31.235Z,999.6
2022-09-15T01:13:47.427Z,999.6
2022-09-15T01:15:03.335Z,999.6
2022-09-15T01:16:18.816Z,999.6
2022-09-15T01:17:34.723Z,999.6
2022-09-15T01:18:51.188Z,999.6
2022-09-15T01:20:07.117Z,999.6
2022-09-15T01:21:23.568Z,999.6
2022-09-15T01:22:39.759Z,999.6
2022-09-15T01:23:55.670Z,999.6
2022-09-15T01:25:11.859Z,999.6
2022-09-15T01:26:28.312Z,999.7
2022-09-15T01:27:44.517Z,999.6
2022-09-15T01:29:00.689Z,999.7
2022-09-15T01:30:16.885Z,999.7
2022-09-15T01:31:33.075Z,999.7
2022-09-15T01:32:47.998Z,999.7
2022-09-15T01:34:04.469Z,999.7
2022-09-15T01:35:20.370Z,999.7
2022-09-15T01:36:36.828Z,999.7
2022-09-15T01:37:52.749Z,999.7
2022-09-15T01:39:09.205Z,999.7
2022-09-15T01:41:41.588Z,999.7
2022-09-15T01:42:57.492Z,999.8
2022-09-15T01:44:13.956Z,999.7
2022-09-15T01:45:30.157Z,999.8
2022-09-15T01:46:46.337Z,999.8
2022-09-15T01:48:02.237Z,999.8
2022-09-15T01:49:17.732Z,999.8
2022-09-15T01:50:33.921Z,999.8
2022-09-15T01:51:50.090Z,999.7
2022-09-15T01:53:06.281Z,999.8
2022-09-15T01:54:22.478Z,999.7
2022-09-15T01:55:38.662Z,999.7
2022-09-15T01:56:54.856Z,999.8
2022-09-15T01:58:11.030Z,999.8
2022-09-15T01:59:27.228Z,999.7
2022-09-15T02:00:43.414Z,999.7
2022-09-15T02:01:59.325Z,999.7
2022-09-15T02:03:15.497Z,999.7
2022-09-15T02:04:31.972Z,999.7
2022-09-15T02:05:47.177Z,999.6
2022-09-15T02:07:03.360Z,999.7
2022-09-15T02:08:19.544Z,999.7
2022-09-15T02:09:35.748Z,999.7
2022-09-15T02:10:51.633Z,999.5
2022-09-15T02:12:07.825Z,999.6
2022-09-15T02:13:24.019Z,999.7
2022-09-15T02:14:40.208Z,999.7
2022-09-15T02:15:56.672Z,999.6
2022-09-15T02:17:12.861Z,999.6
2022-09-15T02:18:28.754Z,999.7
2022-09-15T02:19:45.234Z,999.7
2022-09-15T02:21:01.437Z,999.8
2022-09-15T02:22:16.638Z,999.8
2022-09-15T02:23:32.826Z,999.8
2022-09-15T02:24:48.997Z,999.8
2022-09-15T02:26:05.188Z,999.7
2022-09-15T02:27:21.372Z,999.7
2022-09-15T02:28:37.274Z,999.7
2022-09-15T02:29:53.764Z,999.7
2022-09-15T02:31:09.642Z,999.7
2022-09-15T02:32:26.136Z,999.8
2022-09-15T02:33:42.017Z,999.8
2022-09-15T02:34:58.498Z,999.7
2022-09-15T02:36:14.688Z,999.7
2022-09-15T02:37:30.880Z,999.6
2022-09-15T02:38:46.078Z,999.6
2022-09-15T02:40:01.974Z,999.6
2022-09-15T02:41:18.158Z,999.6
2022-09-15T02:42:34.651Z,999.6
2022-09-15T02:43:50.836Z,999.5
2022-09-15T02:45:06.719Z,999.5
2022-09-15T02:46:23.210Z,999.5
2022-09-15T02:47:39.401Z,999.5
2022-09-15T02:48:55.575Z,999.6
2022-09-15T02:50:11.768Z,999.7
2022-09-15T02:51:27.948Z,999.7
2022-09-15T02:52:43.838Z,999.7
2022-09-15T02:54:00.045Z,999.7
2022-09-15T02:55:15.526Z,999.8
2022-09-15T02:56:31.731Z,999.7
2022-09-15T02:57:47.603Z,999.8
2022-09-15T02:59:04.094Z,999.8
2022-09-15T03:00:19.980Z,999.8
2022-09-15T03:01:36.167Z,999.8
2022-09-15T03:02:52.659Z,999.8
2022-09-15T03:04:08.555Z,999.8
2022-09-15T03:05:25.040Z,999.8
2022-09-15T03:06:41.227Z,999.8
2022-09-15T03:07:57.415Z,999.8
2022-09-15T03:09:13.301Z,999.8
2022-09-15T03:10:29.788Z,999.7
2022-09-15T03:11:44.684Z,999.8
2022-09-15T03:13:01.180Z,999.7
2022-09-15T03:14:17.359Z,999.8
2022-09-15T03:15:33.251Z,999.7
2022-09-15T03:16:49.745Z,999.9
2022-09-15T03:18:05.925Z,999.7
2022-09-15T03:19:21.819Z,999.8
2022-09-15T03:20:38.305Z,999.7
2022-09-15T03:21:54.498Z,999.7
2022-09-15T03:23:10.674Z,999.8
2022-09-15T03:24:26.869Z,999.8
2022-09-15T03:25:43.053Z,999.7
2022-09-15T03:26:58.942Z,999.7
2022-09-15T03:28:14.435Z,999.7
2022-09-15T03:29:30.632Z,999.7
2022-09-15T03:30:46.512Z,999.7
2022-09-15T03:32:02.996Z,999.7
2022-09-15T03:33:19.182Z,999.7
2022-09-15T03:34:35.072Z,999.8
2022-09-15T03:35:51.565Z,999.7
2022-09-15T03:37:07.754Z,999.7
2022-09-15T03:38:23.932Z,999.9
2022-09-15T03:39:39.826Z,999.8
2022-09-15T03:40:56.320Z,999.8
2022-09-15T03:42:12.197Z,999.8
2022-09-15T03:43:28.391Z,999.8
2022-09-15T03:44:43.590Z,999.8
2022-09-15T03:46:00.073Z,999.8
2022-09-15T03:47:16.260Z,999.9
2022-09-15T03:48:32.451Z,999.8
2022-09-15T03:49:48.333Z,999.8
2022-09-15T03:51:04.834Z,999.8
2022-09-15T03:52:21.013Z,999.8
2022-09-15T03:53:36.898Z,999.8
2022-09-15T03:54:53.401Z,999.8
2022-09-15T03:56:09.572Z,999.7
2022-09-15T03:57:25.776Z,999.7
2022-09-15T03:58:41.954Z,999.6
2022-09-15T03:59:57.827Z,999.6
2022-09-15T04:01:13.354Z,999.7
2022-09-15T04:02:29.535Z,999.6
2022-09-15T04:03:45.726Z,999.7
2022-09-15T04:05:01.599Z,999.6
2022-09-15T04:06:18.095Z,999.7
2022-09-15T04:07:34.284Z,999.7
2022-09-15T04:08:50.163Z,999.7
2022-09-15T04:10:06.657Z,999.7
2022-09-15T04:11:22.848Z,999.7
2022-09-15T04:12:38.730Z,999.7
2022-09-15T04:13:55.225Z,999.7
2022-09-15T04:15:11.412Z,999.7
2022-09-15T04:16:27.590Z,999.7
2022-09-15T04:17:42.807Z,999.7
2022-09-15T04:18:58.994Z,999.8
2022-09-15T04:20:14.865Z,999.8
2022-09-15T04:21:31.357Z,999.7
2022-09-15T04:22:47.549Z,999.8
2022-09-15T04:24:03.727Z,999.8
2022-09-15T04:25:19.927Z,999.8
2022-09-15T04:26:36.119Z,999.7
2022-09-15T04:27:52.301Z,999.7
2022-09-15T04:29:08.489Z,999.8
2022-09-15T04:30:24.679Z,999.7
2022-09-15T04:31:40.874Z,999.8
2022-09-15T04:32:57.062Z,999.7
2022-09-15T04:34:12.266Z,999.7
2022-09-15T04:36:44.638Z,999.7
2022-09-15T04:38:00.826Z,999.7
2022-09-15T04:39:17.008Z,999.8
2022-09-15T04:40:33.196Z,999.8
2022-09-15T04:41:49.389Z,999.8
2022-09-15T04:43:05.271Z,999.8
2022-09-15T04:44:21.763Z,999.7
2022-09-15T04:45:37.958Z,999.8
2022-09-15T04:46:54.152Z,999.7
2022-09-15T04:48:10.340Z,999.7
2022-09-15T04:49:26.519Z,999.7
2022-09-15T04:50:41.725Z,999.7
2022-09-15T04:51:57.911Z,999.7
2022-09-15T04:53:14.000Z,999.7
2022-09-15T04:54:30.292Z,999.7
2022-09-15T04:55:46.480Z,999.7
2022-09-15T04:57:02.671Z,999.7
2022-09-15T04:58:18.871Z,999.6
2022-09-15T04:59:35.047Z,999.6
2022-09-15T05:00:51.251Z,999.7
2022-09-15T05:03:23.624Z,999.7
2022-09-15T05:04:39.815Z,999.7
2022-09-15T05:05:55.675Z,999.7
2022-09-15T05:07:10.873Z,999.8
2022-09-15T05:08:27.395Z,999.7
2022-09-15T05:09:43.572Z,999.7
2022-09-15T05:10:59.773Z,999.7
2022-09-15T05:12:15.956Z,999.7
2022-09-15T05:13:31.825Z,999.7
2022-09-15T05:14:48.336Z,999.7
2022-09-15T05:16:04.532Z,999.7
2022-09-15T05:17:20.383Z,999.7
2022-09-15T05:18:36.901Z,999.6
2022-09-15T05:19:53.099Z,999.6
2022-09-15T05:21:08.957Z,999.7
2022-09-15T05:22:25.480Z,999.6
2022-09-15T05:23:40.672Z,999.7
2022-09-15T05:24:56.545Z,999.7
2022-09-15T05:26:13.048Z,999.7
2022-09-15T05:27:29.251Z,999.7
2022-09-15T05:28:45.097Z,999.8
2022-09-15T05:30:01.629Z,999.7
2022-09-15T05:31:16.494Z,999.8
2022-09-15T05:32:33.016Z,999.8
2022-09-15T05:33:49.218Z,999.7
2022-09-15T05:35:05.396Z,999.7
2022-09-15T05:36:21.256Z,999.7
2022-09-15T05:37:37.435Z,999.7
2022-09-15T05:38:53.958Z,999.7
2022-09-15T05:40:10.150Z,999.7
2022-09-15T05:41:26.016Z,999.8
2022-09-15T05:42:42.532Z,999.8
2022-09-15T05:43:58.712Z,999.7
2022-09-15T05:45:14.572Z,999.7
2022-09-15T05:46:30.756Z,999.6
2022-09-15T05:47:45.975Z,999.7
2022-09-15T05:49:02.504Z,999.6
2022-09-15T05:50:18.685Z,999.7
2022-09-15T05:51:34.865Z,999.7
2022-09-15T05:52:50.718Z,999.6
2022-09-15T05:54:07.196Z,999.7
2022-09-15T05:55:23.434Z,999.7
2022-09-15T05:56:39.629Z,999.7
2022-09-15T05:57:55.821Z,999.6
2022-09-15T05:59:11.955Z,999.7
2022-09-15T06:00:28.187Z,999.7
2022-09-15T06:01:44.375Z,999.6
2022-09-15T06:03:00.519Z,999.7
2022-09-15T06:04:15.779Z,999.7
2022-09-15T06:05:31.958Z,999.7
2022-09-15T06:06:48.095Z,999.8
2022-09-15T06:08:04.368Z,999.7
2022-09-15T06:09:20.538Z,999.8
2022-09-15T06:10:36.715Z,999.8
2022-09-15T06:11:52.915Z,999.8
2022-09-15T06:13:09.042Z,999.9
2022-09-15T06:14:25.226Z,999.8
2022-09-15T06:15:41.478Z,999.8
2022-09-15T06:16:57.672Z,999.8
2022-09-15T06:18:13.855Z,999.9
2022-09-15T06:19:29.992Z,999.9
2022-09-15T06:20:45.253Z,999.9
2022-09-15T06:22:01.384Z,999.9
2022-09-15T06:23:17.629Z,999.8
2022-09-15T06:24:33.825Z,999.8
2022-09-15T06:25:50.015Z,999.9
2022-09-15T06:27:06.198Z,999.9
2022-09-15T06:28:22.311Z,999.9
2022-09-15T06:29:38.582Z,999.9
2022-09-15T06:30:54.757Z,999.9
2022-09-15T06:32:10.950Z,999.9
2022-09-15T06:33:27.071Z,999.9
2022-09-15T06:34:43.335Z,999.8
2022-09-15T06:35:59.513Z,999.8
2022-09-15T06:37:14.656Z,999.8
2022-09-15T06:38:30.913Z,999.8
2022-09-15T06:39:47.112Z,999.8
2022-09-15T06:41:03.218Z,999.8
2022-09-15T06:42:19.485Z,999.7
2022-09-15T06:43:35.681Z,999.8
2022-09-15T06:44:51.799Z,999.8
2022-09-15T06:46:08.046Z,999.8
2022-09-15T06:47:24.242Z,999.8
2022-09-15T06:48:40.351Z,999.8
2022-09-15T06:49:56.626Z,999.8
2022-09-15T06:51:12.747Z,999.8
2022-09-15T06:52:28.927Z,999.8
2022-09-15T06:53:44.211Z,999.8
2022-09-15T06:55:00.398Z,999.8
2022-09-15T06:56:16.581Z,999.9
2022-09-15T06:57:32.770Z,999.8
2022-09-15T06:58:48.892Z,999.8
2022-09-15T07:00:05.071Z,999.9
2022-09-15T07:01:21.265Z,999.9
2022-09-15T07:02:37.535Z,999.8
2022-09-15T07:03:53.718Z,999.8
2022-09-15T07:05:09.905Z,999.8
2022-09-15T07:06:26.017Z,999.9
2022-09-15T07:07:42.199Z,999.9
2022-09-15T07:08:58.474Z,999.9
2022-09-15T07:10:13.671Z,999.8
2022-09-15T07:11:29.865Z,999.8
2022-09-15T07:12:46.058Z,999.8
2022-09-15T07:14:02.248Z,999.9
2022-09-15T07:15:18.442Z,999.9
2022-09-15T07:16:34.547Z,999.9
2022-09-15T07:17:50.820Z,1000
2022-09-15T07:19:06.997Z,999.9
2022-09-15T07:20:23.201Z,1000
2022-09-15T07:21:39.377Z,999.9
2022-09-15T07:22:55.498Z,999.9
2022-09-15T07:24:11.755Z,1000
2022-09-15T07:25:27.942Z,1000
2022-09-15T07:26:43.152Z,1000
2022-09-15T07:27:59.341Z,1000
2022-09-15T07:29:15.543Z,1000
2022-09-15T07:30:31.642Z,1000.1
2022-09-15T07:31:47.917Z,1000
2022-09-15T07:33:04.091Z,1000.1
2022-09-15T07:34:20.202Z,1000.1
2022-09-15T07:35:36.481Z,1000.2
2022-09-15T07:36:52.677Z,1000.2
2022-09-15T07:38:08.767Z,1000.2
2022-09-15T07:39:24.969Z,1000.2
2022-09-15T07:40:41.237Z,1000.2
2022-09-15T07:41:57.341Z,1000.2
2022-09-15T07:43:12.638Z,1000.2
2022-09-15T07:44:28.821Z,1000.2
2022-09-15T07:45:44.924Z,1000.2
2022-09-15T07:47:01.194Z,1000.2
2022-09-15T07:48:17.297Z,1000.2
2022-09-15T07:49:33.579Z,1000.2
2022-09-15T07:50:49.777Z,1000.2
2022-09-15T07:52:05.952Z,1000.2
2022-09-15T07:53:22.153Z,1000.2
2022-09-15T07:54:38.342Z,1000.3
2022-09-15T07:55:54.523Z,1000.3
2022-09-15T07:57:10.704Z,1000.3
2022-09-15T07:58:26.905Z,1000.3
2022-09-15T07:59:42.109Z,1000.3
2022-09-15T08:00:58.296Z,1000.4
2022-09-15T08:02:14.494Z,1000.4
2022-09-15T08:03:30.666Z,1000.5
2022-09-15T08:04:46.854Z,1000.4
2022-09-15T08:06:03.052Z,1000.4
2022-09-15T08:07:19.249Z,1000.4
2022-09-15T08:08:35.439Z,1000.4
2022-09-15T08:09:51.525Z,1000.4
2022-09-15T08:11:07.800Z,1000.4
2022-09-15T08:12:23.991Z,1000.4
2022-09-15T08:13:40.093Z,1000.4
2022-09-15T08:14:56.376Z,1000.4
2022-09-15T08:16:11.499Z,1000.4
2022-09-15T08:17:27.770Z,1000.4
2022-09-15T08:18:43.972Z,1000.4
2022-09-15T08:20:00.158Z,1000.4
2022-09-15T08:21:16.348Z,1000.3
2022-09-15T08:25:04.909Z,1000.3
2022-09-15T08:26:21.015Z,1000.4
2022-09-15T08:27:37.296Z,1000.3
2022-09-15T08:28:53.394Z,1000.3
2022-09-15T08:30:09.664Z,1000.3
2022-09-15T08:31:25.757Z,1000.3
2022-09-15T08:32:41.056Z,1000.4
2022-09-15T08:33:57.250Z,1000.3
2022-09-15T08:35:13.443Z,1000.3
2022-09-15T08:36:29.630Z,1000.3
2022-09-15T08:37:45.731Z,1000.3
2022-09-15T08:39:01.916Z,1000.3
2022-09-15T08:40:18.186Z,1000.4
2022-09-15T08:41:34.296Z,1000.4
2022-09-15T08:42:50.473Z,1000.4
2022-09-15T08:44:06.762Z,1000.4
2022-09-15T08:45:22.945Z,1000.4
2022-09-15T08:46:39.045Z,1000.3
2022-09-15T08:47:55.331Z,1000.4
2022-09-15T08:49:10.539Z,1000.3
2022-09-15T08:50:26.731Z,1000.5
2022-09-15T08:51:42.809Z,1000.4
2022-09-15T08:52:59.095Z,1000.3
2022-09-15T08:54:15.293Z,1000.4
2022-09-15T08:55:31.471Z,1000.4
2022-09-15T08:56:47.665Z,1000.4
2022-09-15T08:58:03.756Z,1000.4
2022-09-15T08:59:20.039Z,1000.4
2022-09-15T09:00:36.245Z,1000.4
2022-09-15T09:01:52.328Z,1000.4
2022-09-15T09:03:08.613Z,1000.3
2022-09-15T09:04:24.802Z,1000.4
2022-09-15T09:05:40.002Z,1000.3
2022-09-15T09:06:56.194Z,1000.4
2022-09-15T09:08:12.279Z,1000.3
2022-09-15T09:09:28.586Z,1000.3
2022-09-15T09:10:44.762Z,1000.3
2022-09-15T09:12:00.959Z,1000.4
2022-09-15T09:13:17.148Z,1000.4
2022-09-15T09:14:33.339Z,1000.4
2022-09-15T09:15:49.412Z,1000.4
2022-09-15T09:17:05.705Z,1000.4
2022-09-15T09:18:21.893Z,1000.4
2022-09-15T09:19:37.993Z,1000.3
2022-09-15T09:20:54.283Z,1000.4
2022-09-15T09:22:09.376Z,1000.4
2022-09-15T09:23:25.678Z,1000.3
2022-09-15T09:24:41.761Z,1000.4
2022-09-15T09:25:58.045Z,1000.4
2022-09-15T09:27:14.250Z,1000.4
2022-09-15T09:28:30.431Z,1000.4
2022-09-15T09:29:46.523Z,1000.4
2022-09-15T09:31:02.703Z,1000.4
2022-09-15T09:32:18.895Z,1000.3
2022-09-15T09:33:35.180Z,1000.3
2022-09-15T09:34:51.381Z,1000.3
2022-09-15T09:36:07.555Z,1000.4
2022-09-15T09:37:23.761Z,1000.4
2022-09-15T09:38:38.861Z,1000.4
2022-09-15T09:39:55.040Z,1000.3
2022-09-15T09:41:11.336Z,1000.4
2022-09-15T09:42:27.520Z,1000.4
2022-09-15T09:43:43.705Z,1000.3
2022-09-15T09:44:59.900Z,1000.3
2022-09-15T09:46:15.010Z,1000.4
2022-09-15T09:47:31.196Z,1000.3
2022-09-15T09:48:47.488Z,1000.3
2022-09-15T09:50:03.577Z,1000.3
2022-09-15T09:51:19.755Z,1000.3
2022-09-15T09:52:36.061Z,1000.3
2022-09-15T09:53:52.244Z,1000.4
2022-09-15T09:55:08.441Z,1000.3
2022-09-15T09:56:24.618Z,1000.4
2022-09-15T09:57:40.808Z,1000.3
2022-09-15T09:58:57.015Z,1000.3
2022-09-15T10:00:13.093Z,1000.3
2022-09-15T10:01:29.389Z,1000.3
2022-09-15T10:02:44.477Z,1000.3
2022-09-15T10:04:00.661Z,1000.3
2022-09-15T10:05:16.975Z,1000.3
2022-09-15T10:06:33.148Z,1000.3
2022-09-15T10:07:49.336Z,1000.4
2022-09-15T10:09:05.525Z,1000.3
2022-09-15T10:10:21.611Z,1000.3
2022-09-15T10:11:37.907Z,1000.3
2022-09-15T10:12:53.992Z,1000.3
2022-09-15T10:14:10.287Z,1000.3
2022-09-15T10:15:26.487Z,1000.4
2022-09-15T10:16:42.663Z,1000.4
2022-09-15T10:17:58.745Z,1000.3
2022-09-15T10:19:14.066Z,1000.4
2022-09-15T10:20:30.251Z,1000.3
2022-09-15T10:21:46.436Z,1000.3
2022-09-15T10:23:02.622Z,1000.4
2022-09-15T10:24:18.815Z,1000.4
2022-09-15T10:25:35.012Z,1000.4
2022-09-15T10:26:51.203Z,1000.3
2022-09-15T10:28:07.389Z,1000.3
2022-09-15T10:29:23.453Z,1000.3
2022-09-15T10:31:55.951Z,1000.3
2022-09-15T10:33:12.023Z,1000.3
2022-09-15T10:34:28.340Z,1000.3
2022-09-15T10:35:43.539Z,1000.3
2022-09-15T10:36:59.718Z,1000.3
2022-09-15T10:38:15.795Z,1000.3
2022-09-15T10:39:32.097Z,1000.3
2022-09-15T10:40:48.164Z,1000.3
2022-09-15T10:42:04.360Z,1000.3
2022-09-15T10:43:20.681Z,1000.2
2022-09-15T10:44:36.853Z,1000.2
2022-09-15T10:45:53.042Z,1000.1
2022-09-15T10:47:09.242Z,1000.2
2022-09-15T10:48:25.424Z,1000.3
2022-09-15T10:49:41.609Z,1000.2
2022-09-15T10:50:57.802Z,1000.3
2022-09-15T10:52:13.003Z,1000.2
2022-09-15T10:53:29.193Z,1000.2
2022-09-15T10:54:45.383Z,1000.2
2022-09-15T10:56:01.444Z,1000.2
2022-09-15T10:57:17.772Z,1000.1
2022-09-15T10:58:33.965Z,1000
2022-09-15T10:59:50.153Z,1000
2022-09-15T11:01:06.327Z,1000.1
2022-09-15T11:02:22.521Z,1000.1
2022-09-15T11:03:38.594Z,1000.1
2022-09-15T11:04:54.899Z,1000
2022-09-15T11:06:11.097Z,1000.1
2022-09-15T11:07:27.148Z,1000
2022-09-15T11:08:42.487Z,1000.1
2022-09-15T11:09:58.677Z,1000.1
2022-09-15T11:11:14.729Z,1000.1
2022-09-15T11:12:31.060Z,1000.1
2022-09-15T11:13:47.239Z,1000.1
2022-09-15T11:15:03.434Z,1000.1
2022-09-15T11:16:19.629Z,1000.1
2022-09-15T11:17:35.672Z,1000.2
2022-09-15T11:18:51.993Z,1000.1
2022-09-15T11:20:08.046Z,1000.2
2022-09-15T11:21:24.236Z,1000.2
2022-09-15T11:22:40.570Z,1000.1
2022-09-15T11:23:56.623Z,1000.1
2022-09-15T11:25:11.958Z,1000.1
2022-09-15T11:26:28.024Z,1000.1
2022-09-15T11:27:44.327Z,1000.1
2022-09-15T11:29:00.387Z,1000.1
2022-09-15T11:30:16.720Z,1000
2022-09-15T11:31:32.909Z,1000.1
2022-09-15T11:32:49.091Z,1000.1
2022-09-15T11:34:05.290Z,1000.1
2022-09-15T11:35:21.470Z,1000
2022-09-15T11:36:37.651Z,1000.1
2022-09-15T11:37:53.840Z,1000
2022-09-15T11:39:09.895Z,1000
2022-09-15T11:40:26.216Z,1000
2022-09-15T11:41:41.292Z,1000.1
2022-09-15T11:42:57.626Z,1000
2022-09-15T11:44:13.818Z,1000.1
2022-09-15T11:45:29.864Z,1000
2022-09-15T11:46:46.185Z,1000.1
2022-09-15T11:48:02.376Z,1000
2022-09-15T11:49:18.572Z,1000
2022-09-15T11:50:34.763Z,1000.1
2022-09-15T11:51:50.937Z,1000
2022-09-15T11:53:07.143Z,1000.1
2022-09-15T11:54:23.326Z,1000.1
2022-09-15T11:55:39.510Z,1000.1
2022-09-15T11:56:55.693Z,1000
2022-09-15T11:58:10.897Z,1000.1
2022-09-15T11:59:27.106Z,1000.1
2022-09-15T12:00:43.283Z,1000.1
2022-09-15T12:01:59.473Z,1000.1
2022-09-15T12:03:15.534Z,1000.1
2022-09-15T12:04:31.718Z,1000.2
2022-09-15T12:05:48.035Z,1000.3
2022-09-15T12:07:04.095Z,1000.2
2022-09-15T12:08:20.425Z,1000.2
2022-09-15T12:09:36.618Z,1000.2
2022-09-15T12:10:52.804Z,1000.3
2022-09-15T12:12:08.847Z,1000.2
2022-09-15T12:13:25.031Z,1000.1
2022-09-15T12:14:40.389Z,1000.1
2022-09-15T12:15:56.580Z,1000.2
2022-09-15T12:17:12.608Z,1000.3
2022-09-15T12:18:28.815Z,1000.1
2022-09-15T12:19:44.994Z,1000.1
2022-09-15T12:21:01.333Z,1000.1
2022-09-15T12:22:17.382Z,1000.1
2022-09-15T12:23:33.559Z,1000.1
2022-09-15T12:24:49.902Z,1000.2
2022-09-15T12:26:06.077Z,1000.2
2022-09-15T12:27:22.290Z,1000.2
2022-09-15T12:28:38.462Z,1000.2
2022-09-15T12:29:54.650Z,1000.2
2022-09-15T12:31:09.847Z,1000.2
2022-09-15T12:32:26.043Z,1000.2
2022-09-15T12:33:42.225Z,1000.2
2022-09-15T12:34:58.271Z,1000.2
2022-09-15T12:36:14.606Z,1000.2
2022-09-15T12:37:30.791Z,1000.2
2022-09-15T12:38:46.843Z,1000.2
2022-09-15T12:40:03.038Z,1000.2
2022-09-15T12:41:19.374Z,1000.2
2022-09-15T12:42:35.404Z,1000.2
2022-09-15T12:43:51.752Z,1000.2
2022-09-15T12:45:07.925Z,1000.3
2022-09-15T12:46:24.129Z,1000.2
2022-09-15T12:47:39.338Z,1000.2
2022-09-15T12:48:55.518Z,1000.2
2022-09-15T12:50:11.707Z,1000.3
2022-09-15T12:51:27.890Z,1000.2
2022-09-15T12:52:44.089Z,1000.2
2022-09-15T12:54:00.270Z,1000.1
2022-09-15T12:55:16.315Z,1000.1
2022-09-15T12:56:32.642Z,1000.1
2022-09-15T12:57:48.845Z,1000.1
2022-09-15T12:59:05.024Z,1000
2022-09-15T13:00:21.225Z,1000
2022-09-15T13:01:37.269Z,1000
2022-09-15T13:02:53.604Z,1000.1
2022-09-15T13:04:08.649Z,1000.1
2022-09-15T13:05:24.844Z,1000.1
2022-09-15T13:06:41.185Z,1000.2
2022-09-15T13:07:57.363Z,1000.2
2022-09-15T13:09:13.566Z,1000.2
2022-09-15T13:10:29.756Z,1000.2
2022-09-15T13:11:45.786Z,1000.1
2022-09-15T13:13:02.129Z,1000.1
2022-09-15T13:14:18.324Z,1000.1
2022-09-15T13:15:34.502Z,1000
2022-09-15T13:16:50.692Z,1000
2022-09-15T13:18:06.879Z,1000.1
2022-09-15T13:19:23.075Z,1000
2022-09-15T13:20:38.275Z,1000
2022-09-15T13:21:54.469Z,1000
2022-09-15T13:23:10.509Z,1000
2022-09-15T13:24:26.853Z,1000
2022-09-15T13:25:43.029Z,1000
2022-09-15T13:26:59.065Z,1000
2022-09-15T13:28:15.416Z,999.9
2022-09-15T13:29:31.607Z,1000
2022-09-15T13:30:47.784Z,1000
2022-09-15T13:32:03.978Z,999.9
2022-09-15T13:33:20.158Z,1000
2022-09-15T13:34:36.349Z,1000
2022-09-15T13:35:52.379Z,1000
2022-09-15T13:37:07.761Z,1000
2022-09-15T13:38:23.948Z,999.9
2022-09-15T13:39:39.962Z,999.9
2022-09-15T13:40:56.319Z,999.9
2022-09-15T13:42:12.509Z,999.8
2022-09-15T13:43:28.541Z,999.8
2022-09-15T13:44:44.896Z,999.9
2022-09-15T13:46:01.079Z,1000
2022-09-15T13:47:17.260Z,999.9
2022-09-15T13:48:33.450Z,999.9
2022-09-15T13:49:49.643Z,999.9
2022-09-15T13:51:05.671Z,999.9
2022-09-15T13:52:21.862Z,999.8
2022-09-15T13:53:37.222Z,999.9
2022-09-15T13:54:53.425Z,999.9
2022-09-15T13:56:09.606Z,999.8
2022-09-15T13:57:25.792Z,999.8
2022-09-15T13:58:41.983Z,999.8
2022-09-15T13:59:58.173Z,999.8
2022-09-15T14:01:13.374Z,999.8
2022-09-15T14:02:29.556Z,999.8
2022-09-15T14:03:45.594Z,999.7
2022-09-15T14:05:01.930Z,999.8
2022-09-15T14:06:17.963Z,999.9
2022-09-15T14:07:34.317Z,999.9
2022-09-15T14:08:50.327Z,999.8
2022-09-15T14:10:06.691Z,999.8
2022-09-15T14:11:22.718Z,999.7
2022-09-15T14:12:39.058Z,999.8
2022-09-15T14:13:55.075Z,999.7
2022-09-15T14:15:11.444Z,999.8
2022-09-15T14:16:27.630Z,999.7
2022-09-15T14:17:42.659Z,999.8
2022-09-15T14:18:59.010Z,999.8
2022-09-15T14:20:15.205Z,999.7
2022-09-15T14:21:31.222Z,999.8
2022-09-15T14:22:47.575Z,999.8
2022-09-15T14:24:03.761Z,999.8
2022-09-15T14:25:19.956Z,999.8
2022-09-15T14:26:36.139Z,999.8
2022-09-15T14:27:52.330Z,999.8
2022-09-15T14:29:08.339Z,999.8
2022-09-15T14:30:24.538Z,999.8
2022-09-15T14:31:40.898Z,999.7
2022-09-15T14:32:57.079Z,999.7
2022-09-15T14:34:12.107Z,999.8
2022-09-15T14:35:28.476Z,999.9
2022-09-15T14:36:44.493Z,999.7
2022-09-15T14:38:00.843Z,999.7
2022-09-15T14:39:17.036Z,999.8
2022-09-15T14:40:33.215Z,999.8
2022-09-15T14:41:49.398Z,999.8
2022-09-15T14:43:05.588Z,999.7
2022-09-15T14:44:21.610Z,999.7
2022-09-15T14:45:37.970Z,999.7
2022-09-15T14:46:53.981Z,999.8
2022-09-15T14:48:10.334Z,999.7
2022-09-15T14:49:26.527Z,999.8
2022-09-15T14:50:41.737Z,999.8
2022-09-15T14:51:57.752Z,999.8
2022-09-15T14:53:14.105Z,999.8
2022-09-15T14:54:30.297Z,999.7
2022-09-15T14:55:46.476Z,999.8
2022-09-15T14:57:02.668Z,999.8
2022-09-15T14:58:18.863Z,999.8
2022-09-15T14:59:34.860Z,999.8
2022-09-15T15:00:51.238Z,999.8
2022-09-15T15:02:07.409Z,999.8
2022-09-15T15:03:23.612Z,999.7
2022-09-15T15:04:39.792Z,999.8
2022-09-15T15:05:55.979Z,999.7
2022-09-15T15:07:11.185Z,999.7
2022-09-15T15:08:27.194Z,999.8
2022-09-15T15:09:43.557Z,999.7
2022-09-15T15:10:59.745Z,999.8
2022-09-15T15:12:15.761Z,999.8
2022-09-15T15:13:32.113Z,999.8
2022-09-15T15:14:48.313Z,999.8
2022-09-15T15:16:04.487Z,999.8
2022-09-15T15:17:20.678Z,999.8
2022-09-15T15:18:36.868Z,999.8
2022-09-15T15:19:53.065Z,999.8
2022-09-15T15:21:09.242Z,999.8
2022-09-15T15:22:25.256Z,999.8
2022-09-15T15:23:40.644Z,999.8
2022-09-15T15:24:56.821Z,999.8
2022-09-15T15:26:13.016Z,999.8
2022-09-15T15:27:29.191Z,999.8
2022-09-15T15:28:45.387Z,999.8
2022-09-15T15:30:01.384Z,999.9
2022-09-15T15:31:17.760Z,999.8
2022-09-15T15:32:33.938Z,999.8
2022-09-15T15:33:50.136Z,999.9
2022-09-15T15:35:06.320Z,999.8
2022-09-15T15:36:22.509Z,999.9
2022-09-15T15:37:38.703Z,999.8
2022-09-15T15:38:54.890Z,999.9
2022-09-15T15:40:10.084Z,999.9
2022-09-15T15:41:26.276Z,999.9
2022-09-15T15:42:42.458Z,999.9
2022-09-15T15:43:58.655Z,999.9
2022-09-15T15:45:14.643Z,999.9
2022-09-15T15:46:31.027Z,999.9
2022-09-15T15:47:47.215Z,1000
2022-09-15T15:49:03.404Z,1000
2022-09-15T15:50:19.589Z,1000.1
2022-09-15T15:51:35.780Z,1000
2022-09-15T15:52:51.778Z,1000.2
2022-09-15T15:54:08.140Z,1000.2
2022-09-15T15:55:24.340Z,1000.2
2022-09-15T15:56:39.350Z,1000.2
2022-09-15T15:57:55.529Z,1000.1
2022-09-15T15:59:11.908Z,1000.2
2022-09-15T16:00:27.920Z,1000.2
2022-09-15T16:01:44.281Z,1000.2
2022-09-15T16:03:00.468Z,1000.2
2022-09-15T16:04:16.661Z,1000.2
2022-09-15T16:05:32.857Z,1000.3
2022-09-15T16:06:49.030Z,1000.3
2022-09-15T16:08:05.224Z,1000.3
2022-09-15T16:09:21.409Z,1000.3
2022-09-15T16:10:37.599Z,1000.3
2022-09-15T16:11:53.793Z,1000.3
2022-09-15T16:13:08.978Z,1000.3
2022-09-15T16:14:25.175Z,1000.3
2022-09-15T16:15:41.173Z,1000.4
2022-09-15T16:16:57.558Z,1000.4
2022-09-15T16:18:13.733Z,1000.4